sensor_id;sensor_type;location;lat;lon;timestamp;temperature;humidity
65038;DHT22;51605;47.040;15.294;2023-07-28T00:00:13;24.00;47.90
65038;DHT22;51605;47.040;15.294;2023-07-28T00:02:39;24.10;47.90
65038;DHT22;51605;47.040;15.294;2023-07-28T00:05:04;24.10;47.90
65038;DHT22;51605;47.040;15.294;2023-07-28T00:07:30;24.00;47.90
65038;DHT22;51605;47.040;15.294;2023-07-28T00:09:59;24.10;47.90
65038;DHT22;51605;47.040;15.294;2023-07-28T00:12:24;24.00;47.90
65038;DHT22;51605;47.040;15.294;2023-07-28T00:14:50;24.00;48.00
65038;DHT22;51605;47.040;15.294;2023-07-28T00:17:16;24.00;48.00
65038;DHT22;51605;47.040;15.294;2023-07-28T00:19:41;24.00;48.00
65038;DHT22;51605;47.040;15.294;2023-07-28T00:22:07;24.10;48.00
65038;DHT22;51605;47.040;15.294;2023-07-28T00:24:32;24.10;48.10
65038;DHT22;51605;47.040;15.294;2023-07-28T00:26:58;24.00;47.90
65038;DHT22;51605;47.040;15.294;2023-07-28T00:29:24;24.10;48.00
65038;DHT22;51605;47.040;15.294;2023-07-28T00:31:49;24.00;48.00
65038;DHT22;51605;47.040;15.294;2023-07-28T00:34:15;24.10;48.10
65038;DHT22;51605;47.040;15.294;2023-07-28T00:36:41;24.00;48.00
65038;DHT22;51605;47.040;15.294;2023-07-28T00:39:06;24.10;48.00
65038;DHT22;51605;47.040;15.294;2023-07-28T00:41:32;24.10;48.00
65038;DHT22;51605;47.040;15.294;2023-07-28T00:43:57;24.10;48.00
65038;DHT22;51605;47.040;15.294;2023-07-28T00:46:23;24.10;48.10
65038;DHT22;51605;47.040;15.294;2023-07-28T00:48:49;24.10;48.10
65038;DHT22;51605;47.040;15.294;2023-07-28T00:51:15;24.10;48.10
65038;DHT22;51605;47.040;15.294;2023-07-28T00:53:42;24.10;48.10
65038;DHT22;51605;47.040;15.294;2023-07-28T00:56:08;24.10;48.10
65038;DHT22;51605;47.040;15.294;2023-07-28T00:58:34;24.00;48.10
65038;DHT22;51605;47.040;15.294;2023-07-28T01:00:59;24.00;48.10
65038;DHT22;51605;47.040;15.294;2023-07-28T01:03:25;24.00;48.10
65038;DHT22;51605;47.040;15.294;2023-07-28T01:06:25;24.10;48.30
65038;DHT22;51605;47.040;15.294;2023-07-28T01:09:03;24.00;48.20
65038;DHT22;51605;47.040;15.294;2023-07-28T01:11:29;24.00;48.20
65038;DHT22;51605;47.040;15.294;2023-07-28T01:13:55;24.00;48.20
65038;DHT22;51605;47.040;15.294;2023-07-28T01:16:21;24.00;48.20
65038;DHT22;51605;47.040;15.294;2023-07-28T01:18:47;24.10;48.20
65038;DHT22;51605;47.040;15.294;2023-07-28T01:21:25;24.00;48.10
65038;DHT22;51605;47.040;15.294;2023-07-28T01:26:55;24.10;48.20
65038;DHT22;51605;47.040;15.294;2023-07-28T01:29:21;24.00;48.10
65038;DHT22;51605;47.040;15.294;2023-07-28T01:31:47;24.10;48.20
65038;DHT22;51605;47.040;15.294;2023-07-28T01:34:13;24.00;48.20
65038;DHT22;51605;47.040;15.294;2023-07-28T01:36:39;24.00;48.20
65038;DHT22;51605;47.040;15.294;2023-07-28T01:39:04;24.00;48.10
65038;DHT22;51605;47.040;15.294;2023-07-28T01:41:30;24.10;48.10
65038;DHT22;51605;47.040;15.294;2023-07-28T01:43:55;24.10;48.20
65038;DHT22;51605;47.040;15.294;2023-07-28T01:46:22;24.10;48.20
65038;DHT22;51605;47.040;15.294;2023-07-28T01:48:47;24.00;48.20
65038;DHT22;51605;47.040;15.294;2023-07-28T01:51:13;24.00;48.20
65038;DHT22;51605;47.040;15.294;2023-07-28T01:53:39;24.00;48.20
65038;DHT22;51605;47.040;15.294;2023-07-28T01:56:04;24.00;48.20
65038;DHT22;51605;47.040;15.294;2023-07-28T01:58:30;24.00;48.30
65038;DHT22;51605;47.040;15.294;2023-07-28T02:00:55;24.00;48.40
65038;DHT22;51605;47.040;15.294;2023-07-28T02:03:21;24.00;48.30
65038;DHT22;51605;47.040;15.294;2023-07-28T02:05:47;24.00;48.30
65038;DHT22;51605;47.040;15.294;2023-07-28T02:08:12;24.00;48.30
65038;DHT22;51605;47.040;15.294;2023-07-28T02:10:38;24.00;48.30
65038;DHT22;51605;47.040;15.294;2023-07-28T02:13:04;24.00;48.30
65038;DHT22;51605;47.040;15.294;2023-07-28T02:15:29;24.10;48.30
65038;DHT22;51605;47.040;15.294;2023-07-28T02:17:55;24.00;48.30
65038;DHT22;51605;47.040;15.294;2023-07-28T02:20:21;24.00;48.30
65038;DHT22;51605;47.040;15.294;2023-07-28T02:22:47;24.00;48.30
65038;DHT22;51605;47.040;15.294;2023-07-28T02:25:12;24.10;48.40
65038;DHT22;51605;47.040;15.294;2023-07-28T02:27:38;24.00;48.30
65038;DHT22;51605;47.040;15.294;2023-07-28T02:30:05;24.00;48.30
65038;DHT22;51605;47.040;15.294;2023-07-28T02:32:31;24.00;48.40
65038;DHT22;51605;47.040;15.294;2023-07-28T02:34:57;24.00;48.40
65038;DHT22;51605;47.040;15.294;2023-07-28T02:37:22;24.00;48.30
65038;DHT22;51605;47.040;15.294;2023-07-28T02:39:48;24.00;48.30
65038;DHT22;51605;47.040;15.294;2023-07-28T02:42:14;24.00;48.30
65038;DHT22;51605;47.040;15.294;2023-07-28T02:44:39;24.00;48.40
65038;DHT22;51605;47.040;15.294;2023-07-28T02:47:05;24.00;48.40
65038;DHT22;51605;47.040;15.294;2023-07-28T02:49:31;24.00;48.40
65038;DHT22;51605;47.040;15.294;2023-07-28T02:51:57;24.00;48.40
65038;DHT22;51605;47.040;15.294;2023-07-28T02:54:22;24.00;48.40
65038;DHT22;51605;47.040;15.294;2023-07-28T02:56:50;24.00;48.40
65038;DHT22;51605;47.040;15.294;2023-07-28T02:59:16;24.00;49.40
65038;DHT22;51605;47.040;15.294;2023-07-28T03:01:41;24.00;48.40
65038;DHT22;51605;47.040;15.294;2023-07-28T03:04:07;24.00;48.40
65038;DHT22;51605;47.040;15.294;2023-07-28T03:06:33;24.00;48.40
65038;DHT22;51605;47.040;15.294;2023-07-28T03:08:59;24.00;48.40
65038;DHT22;51605;47.040;15.294;2023-07-28T03:11:25;24.00;48.40
65038;DHT22;51605;47.040;15.294;2023-07-28T03:13:50;24.00;48.40
65038;DHT22;51605;47.040;15.294;2023-07-28T03:16:16;24.00;48.40
65038;DHT22;51605;47.040;15.294;2023-07-28T03:18:42;24.00;48.40
65038;DHT22;51605;47.040;15.294;2023-07-28T03:21:08;24.00;48.50
65038;DHT22;51605;47.040;15.294;2023-07-28T03:23:34;24.00;48.40
65038;DHT22;51605;47.040;15.294;2023-07-28T03:26:00;24.00;48.50
65038;DHT22;51605;47.040;15.294;2023-07-28T03:28:25;24.00;48.50
65038;DHT22;51605;47.040;15.294;2023-07-28T03:30:51;24.00;48.40
65038;DHT22;51605;47.040;15.294;2023-07-28T03:33:17;24.00;48.50
65038;DHT22;51605;47.040;15.294;2023-07-28T03:35:42;24.00;48.50
65038;DHT22;51605;47.040;15.294;2023-07-28T03:38:08;24.00;48.50
65038;DHT22;51605;47.040;15.294;2023-07-28T03:40:33;24.00;48.40
65038;DHT22;51605;47.040;15.294;2023-07-28T03:42:59;24.00;48.40
65038;DHT22;51605;47.040;15.294;2023-07-28T03:45:25;24.00;48.40
65038;DHT22;51605;47.040;15.294;2023-07-28T03:47:50;24.00;48.40
65038;DHT22;51605;47.040;15.294;2023-07-28T03:50:16;24.00;48.40
65038;DHT22;51605;47.040;15.294;2023-07-28T03:52:42;24.00;48.40
65038;DHT22;51605;47.040;15.294;2023-07-28T03:55:07;24.00;48.40
65038;DHT22;51605;47.040;15.294;2023-07-28T03:57:33;24.00;48.50
65038;DHT22;51605;47.040;15.294;2023-07-28T03:59:59;24.00;48.40
65038;DHT22;51605;47.040;15.294;2023-07-28T04:02:24;24.00;48.40
65038;DHT22;51605;47.040;15.294;2023-07-28T04:04:54;24.00;48.40
65038;DHT22;51605;47.040;15.294;2023-07-28T04:07:20;24.00;48.40
65038;DHT22;51605;47.040;15.294;2023-07-28T04:09:46;24.00;48.50
65038;DHT22;51605;47.040;15.294;2023-07-28T04:12:11;24.00;48.50
65038;DHT22;51605;47.040;15.294;2023-07-28T04:14:37;24.00;48.80
65038;DHT22;51605;47.040;15.294;2023-07-28T04:17:03;24.00;49.00
65038;DHT22;51605;47.040;15.294;2023-07-28T04:19:28;24.00;49.20
65038;DHT22;51605;47.040;15.294;2023-07-28T04:21:56;24.10;49.20
65038;DHT22;51605;47.040;15.294;2023-07-28T04:24:22;24.10;49.20
65038;DHT22;51605;47.040;15.294;2023-07-28T04:26:47;24.00;49.10
65038;DHT22;51605;47.040;15.294;2023-07-28T04:29:15;24.00;49.10
65038;DHT22;51605;47.040;15.294;2023-07-28T04:31:41;24.10;49.20
65038;DHT22;51605;47.040;15.294;2023-07-28T04:34:07;24.10;49.20
65038;DHT22;51605;47.040;15.294;2023-07-28T04:36:32;24.10;49.00
65038;DHT22;51605;47.040;15.294;2023-07-28T04:38:58;24.10;48.80
65038;DHT22;51605;47.040;15.294;2023-07-28T04:41:24;24.10;48.70
65038;DHT22;51605;47.040;15.294;2023-07-28T04:43:49;24.10;48.60
65038;DHT22;51605;47.040;15.294;2023-07-28T04:46:15;24.10;48.70
65038;DHT22;51605;47.040;15.294;2023-07-28T04:48:40;24.10;48.80
65038;DHT22;51605;47.040;15.294;2023-07-28T04:51:06;24.10;48.80
65038;DHT22;51605;47.040;15.294;2023-07-28T04:53:32;24.10;48.90
65038;DHT22;51605;47.040;15.294;2023-07-28T04:55:57;24.10;48.90
65038;DHT22;51605;47.040;15.294;2023-07-28T04:58:23;24.10;48.90
65038;DHT22;51605;47.040;15.294;2023-07-28T05:00:48;24.10;49.00
65038;DHT22;51605;47.040;15.294;2023-07-28T05:03:14;24.10;49.00
65038;DHT22;51605;47.040;15.294;2023-07-28T05:05:43;24.10;49.00
65038;DHT22;51605;47.040;15.294;2023-07-28T05:08:09;24.20;49.00
65038;DHT22;51605;47.040;15.294;2023-07-28T05:10:35;24.20;49.10
65038;DHT22;51605;47.040;15.294;2023-07-28T05:13:01;24.20;49.00
65038;DHT22;51605;47.040;15.294;2023-07-28T05:15:28;24.10;48.90
65038;DHT22;51605;47.040;15.294;2023-07-28T05:17:54;24.20;49.00
65038;DHT22;51605;47.040;15.294;2023-07-28T05:20:20;24.20;49.00
65038;DHT22;51605;47.040;15.294;2023-07-28T05:22:45;24.20;49.00
65038;DHT22;51605;47.040;15.294;2023-07-28T05:25:11;24.20;49.00
65038;DHT22;51605;47.040;15.294;2023-07-28T05:27:37;24.20;49.00
65038;DHT22;51605;47.040;15.294;2023-07-28T05:30:02;24.20;49.10
65038;DHT22;51605;47.040;15.294;2023-07-28T05:32:28;24.20;49.00
65038;DHT22;51605;47.040;15.294;2023-07-28T05:34:53;24.20;49.10
65038;DHT22;51605;47.040;15.294;2023-07-28T05:37:19;24.20;49.10
65038;DHT22;51605;47.040;15.294;2023-07-28T05:39:45;24.20;50.10
65038;DHT22;51605;47.040;15.294;2023-07-28T05:42:10;24.20;49.00
65038;DHT22;51605;47.040;15.294;2023-07-28T05:44:36;24.20;49.00
65038;DHT22;51605;47.040;15.294;2023-07-28T05:47:02;24.20;49.10
65038;DHT22;51605;47.040;15.294;2023-07-28T05:49:27;24.20;49.00
65038;DHT22;51605;47.040;15.294;2023-07-28T05:51:53;24.20;48.90
65038;DHT22;51605;47.040;15.294;2023-07-28T05:54:18;24.20;48.90
65038;DHT22;51605;47.040;15.294;2023-07-28T05:56:44;24.20;48.80
65038;DHT22;51605;47.040;15.294;2023-07-28T05:59:09;24.20;48.90
65038;DHT22;51605;47.040;15.294;2023-07-28T06:01:35;24.20;49.00
65038;DHT22;51605;47.040;15.294;2023-07-28T06:04:01;24.20;49.10
65038;DHT22;51605;47.040;15.294;2023-07-28T06:06:26;24.20;49.10
65038;DHT22;51605;47.040;15.294;2023-07-28T06:08:53;24.20;49.10
65038;DHT22;51605;47.040;15.294;2023-07-28T06:11:18;24.20;49.00
65038;DHT22;51605;47.040;15.294;2023-07-28T06:13:44;24.20;49.00
65038;DHT22;51605;47.040;15.294;2023-07-28T06:16:11;24.20;48.90
65038;DHT22;51605;47.040;15.294;2023-07-28T06:18:37;24.20;48.90
65038;DHT22;51605;47.040;15.294;2023-07-28T06:21:03;24.20;48.80
65038;DHT22;51605;47.040;15.294;2023-07-28T06:23:28;24.20;48.70
65038;DHT22;51605;47.040;15.294;2023-07-28T06:25:54;24.20;48.70
65038;DHT22;51605;47.040;15.294;2023-07-28T06:28:20;24.20;48.70
65038;DHT22;51605;47.040;15.294;2023-07-28T06:30:46;24.20;48.60
65038;DHT22;51605;47.040;15.294;2023-07-28T06:33:12;24.20;48.60
65038;DHT22;51605;47.040;15.294;2023-07-28T06:35:38;24.20;48.60
65038;DHT22;51605;47.040;15.294;2023-07-28T06:38:04;24.20;48.70
65038;DHT22;51605;47.040;15.294;2023-07-28T06:40:30;24.20;48.60
65038;DHT22;51605;47.040;15.294;2023-07-28T06:42:55;24.20;48.70
65038;DHT22;51605;47.040;15.294;2023-07-28T06:45:21;24.20;48.70
65038;DHT22;51605;47.040;15.294;2023-07-28T06:47:47;24.20;48.70
65038;DHT22;51605;47.040;15.294;2023-07-28T06:50:14;24.20;48.70
65038;DHT22;51605;47.040;15.294;2023-07-28T06:52:39;24.20;48.70
65038;DHT22;51605;47.040;15.294;2023-07-28T06:55:05;24.20;48.60
65038;DHT22;51605;47.040;15.294;2023-07-28T06:57:31;24.20;48.50
65038;DHT22;51605;47.040;15.294;2023-07-28T06:59:56;24.20;48.60
65038;DHT22;51605;47.040;15.294;2023-07-28T07:02:22;24.20;48.60
65038;DHT22;51605;47.040;15.294;2023-07-28T07:04:48;24.20;48.60
65038;DHT22;51605;47.040;15.294;2023-07-28T07:07:14;24.20;48.60
65038;DHT22;51605;47.040;15.294;2023-07-28T07:09:39;24.20;48.70
65038;DHT22;51605;47.040;15.294;2023-07-28T07:12:09;24.20;48.70
65038;DHT22;51605;47.040;15.294;2023-07-28T07:14:35;24.20;48.70
65038;DHT22;51605;47.040;15.294;2023-07-28T07:17:01;24.20;48.70
65038;DHT22;51605;47.040;15.294;2023-07-28T07:19:29;24.10;48.70
65038;DHT22;51605;47.040;15.294;2023-07-28T07:21:55;24.10;48.70
65038;DHT22;51605;47.040;15.294;2023-07-28T07:24:21;24.10;48.80
65038;DHT22;51605;47.040;15.294;2023-07-28T07:26:47;24.10;48.90
65038;DHT22;51605;47.040;15.294;2023-07-28T07:29:12;24.10;49.00
65038;DHT22;51605;47.040;15.294;2023-07-28T07:31:38;24.10;49.10
65038;DHT22;51605;47.040;15.294;2023-07-28T07:34:04;24.20;49.10
65038;DHT22;51605;47.040;15.294;2023-07-28T07:36:30;24.20;49.20
65038;DHT22;51605;47.040;15.294;2023-07-28T07:38:56;24.20;49.20
65038;DHT22;51605;47.040;15.294;2023-07-28T07:41:22;24.20;49.20
65038;DHT22;51605;47.040;15.294;2023-07-28T07:43:49;24.20;49.00
65038;DHT22;51605;47.040;15.294;2023-07-28T07:46:15;24.20;49.00
65038;DHT22;51605;47.040;15.294;2023-07-28T07:48:41;24.20;48.90
65038;DHT22;51605;47.040;15.294;2023-07-28T07:51:08;24.20;49.10
65038;DHT22;51605;47.040;15.294;2023-07-28T07:53:34;24.20;49.10
65038;DHT22;51605;47.040;15.294;2023-07-28T07:56:02;24.20;49.10
65038;DHT22;51605;47.040;15.294;2023-07-28T07:58:28;24.20;49.20
65038;DHT22;51605;47.040;15.294;2023-07-28T08:00:55;24.20;49.30
65038;DHT22;51605;47.040;15.294;2023-07-28T08:03:20;24.20;49.40
65038;DHT22;51605;47.040;15.294;2023-07-28T08:05:46;24.30;49.60
65038;DHT22;51605;47.040;15.294;2023-07-28T08:08:13;24.30;49.50
65038;DHT22;51605;47.040;15.294;2023-07-28T08:11:00;24.20;49.50
65038;DHT22;51605;47.040;15.294;2023-07-28T08:13:26;24.20;49.50
65038;DHT22;51605;47.040;15.294;2023-07-28T08:15:51;24.20;49.50
65038;DHT22;51605;47.040;15.294;2023-07-28T08:18:17;24.20;49.60
65038;DHT22;51605;47.040;15.294;2023-07-28T08:20:42;24.20;49.50
65038;DHT22;51605;47.040;15.294;2023-07-28T08:23:08;24.20;49.50
65038;DHT22;51605;47.040;15.294;2023-07-28T08:25:34;24.30;49.50
65038;DHT22;51605;47.040;15.294;2023-07-28T08:28:00;24.20;49.40
65038;DHT22;51605;47.040;15.294;2023-07-28T08:30:26;24.30;49.40
65038;DHT22;51605;47.040;15.294;2023-07-28T08:32:51;24.30;49.40
65038;DHT22;51605;47.040;15.294;2023-07-28T08:35:17;24.30;49.50
65038;DHT22;51605;47.040;15.294;2023-07-28T08:37:43;24.20;49.40
65038;DHT22;51605;47.040;15.294;2023-07-28T08:40:09;24.30;49.50
65038;DHT22;51605;47.040;15.294;2023-07-28T08:42:38;24.20;49.30
65038;DHT22;51605;47.040;15.294;2023-07-28T08:45:04;24.30;49.30
65038;DHT22;51605;47.040;15.294;2023-07-28T08:47:31;24.20;49.20
65038;DHT22;51605;47.040;15.294;2023-07-28T08:49:57;24.20;49.20
65038;DHT22;51605;47.040;15.294;2023-07-28T08:52:23;24.20;49.40
65038;DHT22;51605;47.040;15.294;2023-07-28T08:54:49;24.20;49.40
65038;DHT22;51605;47.040;15.294;2023-07-28T08:57:15;24.20;49.40
65038;DHT22;51605;47.040;15.294;2023-07-28T08:59:41;24.20;49.40
65038;DHT22;51605;47.040;15.294;2023-07-28T09:02:14;24.20;49.50
65038;DHT22;51605;47.040;15.294;2023-07-28T09:04:41;24.20;49.60
65038;DHT22;51605;47.040;15.294;2023-07-28T09:07:06;24.20;49.50
65038;DHT22;51605;47.040;15.294;2023-07-28T09:09:33;24.20;49.60
65038;DHT22;51605;47.040;15.294;2023-07-28T09:12:00;24.20;49.60
65038;DHT22;51605;47.040;15.294;2023-07-28T09:14:26;24.20;49.60
65038;DHT22;51605;47.040;15.294;2023-07-28T09:16:52;24.20;49.50
65038;DHT22;51605;47.040;15.294;2023-07-28T09:19:20;24.20;49.60
65038;DHT22;51605;47.040;15.294;2023-07-28T09:21:58;24.20;49.70
65038;DHT22;51605;47.040;15.294;2023-07-28T09:24:33;24.20;49.80
65038;DHT22;51605;47.040;15.294;2023-07-28T09:26:59;24.20;49.80
65038;DHT22;51605;47.040;15.294;2023-07-28T09:29:26;24.20;49.80
65038;DHT22;51605;47.040;15.294;2023-07-28T09:32:05;24.20;49.90
65038;DHT22;51605;47.040;15.294;2023-07-28T09:34:31;24.20;49.60
65038;DHT22;51605;47.040;15.294;2023-07-28T09:36:58;24.20;49.50
65038;DHT22;51605;47.040;15.294;2023-07-28T09:39:25;24.20;49.50
65038;DHT22;51605;47.040;15.294;2023-07-28T09:41:51;24.20;49.60
65038;DHT22;51605;47.040;15.294;2023-07-28T09:44:17;24.20;49.70
65038;DHT22;51605;47.040;15.294;2023-07-28T09:46:54;24.20;49.70
65038;DHT22;51605;47.040;15.294;2023-07-28T09:49:35;24.20;50.70
65038;DHT22;51605;47.040;15.294;2023-07-28T09:52:05;24.20;49.70
65038;DHT22;51605;47.040;15.294;2023-07-28T09:54:34;24.20;49.80
65038;DHT22;51605;47.040;15.294;2023-07-28T09:57:00;24.20;49.80
65038;DHT22;51605;47.040;15.294;2023-07-28T09:59:35;24.20;49.80
65038;DHT22;51605;47.040;15.294;2023-07-28T10:02:03;24.20;49.70
65038;DHT22;51605;47.040;15.294;2023-07-28T10:04:29;24.30;49.60
65038;DHT22;51605;47.040;15.294;2023-07-28T10:06:56;24.20;49.80
65038;DHT22;51605;47.040;15.294;2023-07-28T10:09:25;24.20;49.90
65038;DHT22;51605;47.040;15.294;2023-07-28T10:11:52;24.20;49.80
65038;DHT22;51605;47.040;15.294;2023-07-28T10:14:35;24.20;49.80
65038;DHT22;51605;47.040;15.294;2023-07-28T10:17:04;24.20;49.90
65038;DHT22;51605;47.040;15.294;2023-07-28T10:19:34;24.20;49.80
65038;DHT22;51605;47.040;15.294;2023-07-28T10:22:08;24.30;49.90
65038;DHT22;51605;47.040;15.294;2023-07-28T10:24:56;24.20;50.10
65038;DHT22;51605;47.040;15.294;2023-07-28T10:29:58;24.20;50.10
65038;DHT22;51605;47.040;15.294;2023-07-28T10:32:37;24.30;50.20
65038;DHT22;51605;47.040;15.294;2023-07-28T10:35:28;24.30;50.00
65038;DHT22;51605;47.040;15.294;2023-07-28T10:37:56;24.30;50.00
65038;DHT22;51605;47.040;15.294;2023-07-28T10:40:29;24.20;49.80
65038;DHT22;51605;47.040;15.294;2023-07-28T10:43:02;24.30;49.80
65038;DHT22;51605;47.040;15.294;2023-07-28T10:45:28;24.20;49.70
65038;DHT22;51605;47.040;15.294;2023-07-28T10:47:55;24.20;49.70
65038;DHT22;51605;47.040;15.294;2023-07-28T10:50:24;24.20;49.60
65038;DHT22;51605;47.040;15.294;2023-07-28T10:52:51;24.20;50.50
65038;DHT22;51605;47.040;15.294;2023-07-28T10:55:20;24.20;49.60
65038;DHT22;51605;47.040;15.294;2023-07-28T10:57:47;24.20;49.60
65038;DHT22;51605;47.040;15.294;2023-07-28T11:00:15;24.20;49.60
65038;DHT22;51605;47.040;15.294;2023-07-28T11:02:53;24.20;49.60
65038;DHT22;51605;47.040;15.294;2023-07-28T11:05:21;24.20;49.70
65038;DHT22;51605;47.040;15.294;2023-07-28T11:07:47;24.20;49.60
65038;DHT22;51605;47.040;15.294;2023-07-28T11:10:13;24.10;49.70
65038;DHT22;51605;47.040;15.294;2023-07-28T11:12:41;24.10;49.60
65038;DHT22;51605;47.040;15.294;2023-07-28T11:15:12;24.20;49.60
65038;DHT22;51605;47.040;15.294;2023-07-28T11:17:47;24.10;49.50
65038;DHT22;51605;47.040;15.294;2023-07-28T11:20:16;24.10;49.60
65038;DHT22;51605;47.040;15.294;2023-07-28T11:22:47;24.10;49.50
65038;DHT22;51605;47.040;15.294;2023-07-28T11:25:17;24.20;49.60
65038;DHT22;51605;47.040;15.294;2023-07-28T11:27:44;24.20;49.60
65038;DHT22;51605;47.040;15.294;2023-07-28T11:30:12;24.20;49.50
65038;DHT22;51605;47.040;15.294;2023-07-28T11:32:39;24.10;49.50
65038;DHT22;51605;47.040;15.294;2023-07-28T11:35:10;24.20;49.50
65038;DHT22;51605;47.040;15.294;2023-07-28T11:37:37;24.10;49.70
65038;DHT22;51605;47.040;15.294;2023-07-28T11:40:05;24.20;49.90
65038;DHT22;51605;47.040;15.294;2023-07-28T11:42:41;24.10;49.80
65038;DHT22;51605;47.040;15.294;2023-07-28T11:45:07;24.10;50.00
65038;DHT22;51605;47.040;15.294;2023-07-28T11:47:34;24.10;50.00
65038;DHT22;51605;47.040;15.294;2023-07-28T11:49:59;24.10;50.00
65038;DHT22;51605;47.040;15.294;2023-07-28T11:52:32;24.20;50.10
65038;DHT22;51605;47.040;15.294;2023-07-28T11:54:59;24.20;50.30
65038;DHT22;51605;47.040;15.294;2023-07-28T11:57:26;24.20;50.20
65038;DHT22;51605;47.040;15.294;2023-07-28T11:59:52;24.20;50.20
65038;DHT22;51605;47.040;15.294;2023-07-28T12:02:28;24.20;50.20
65038;DHT22;51605;47.040;15.294;2023-07-28T12:04:54;24.20;50.30
65038;DHT22;51605;47.040;15.294;2023-07-28T12:07:28;24.20;50.10
65038;DHT22;51605;47.040;15.294;2023-07-28T12:09:55;24.20;50.00
65038;DHT22;51605;47.040;15.294;2023-07-28T12:12:26;24.20;50.00
65038;DHT22;51605;47.040;15.294;2023-07-28T12:14:52;24.20;49.90
65038;DHT22;51605;47.040;15.294;2023-07-28T12:17:22;24.20;49.90
65038;DHT22;51605;47.040;15.294;2023-07-28T12:20:03;24.20;49.90
65038;DHT22;51605;47.040;15.294;2023-07-28T12:22:39;24.10;49.90
65038;DHT22;51605;47.040;15.294;2023-07-28T12:25:11;24.10;49.90
65038;DHT22;51605;47.040;15.294;2023-07-28T12:27:37;24.10;50.00
65038;DHT22;51605;47.040;15.294;2023-07-28T12:30:03;24.10;50.00
65038;DHT22;51605;47.040;15.294;2023-07-28T12:32:29;24.10;50.00
65038;DHT22;51605;47.040;15.294;2023-07-28T12:34:55;24.10;50.00
65038;DHT22;51605;47.040;15.294;2023-07-28T12:37:21;24.10;50.00
65038;DHT22;51605;47.040;15.294;2023-07-28T12:39:47;24.10;50.00
65038;DHT22;51605;47.040;15.294;2023-07-28T12:42:13;24.10;49.90
65038;DHT22;51605;47.040;15.294;2023-07-28T12:44:41;24.10;49.90
65038;DHT22;51605;47.040;15.294;2023-07-28T12:47:07;24.10;50.00
65038;DHT22;51605;47.040;15.294;2023-07-28T12:49:33;24.10;50.00
65038;DHT22;51605;47.040;15.294;2023-07-28T12:52:04;24.10;49.90
65038;DHT22;51605;47.040;15.294;2023-07-28T12:54:32;24.10;50.00
65038;DHT22;51605;47.040;15.294;2023-07-28T12:56:58;24.10;49.90
65038;DHT22;51605;47.040;15.294;2023-07-28T12:59:24;24.10;49.90
65038;DHT22;51605;47.040;15.294;2023-07-28T13:01:50;24.10;49.90
65038;DHT22;51605;47.040;15.294;2023-07-28T13:04:15;24.10;49.80
65038;DHT22;51605;47.040;15.294;2023-07-28T13:06:41;24.10;49.80
65038;DHT22;51605;47.040;15.294;2023-07-28T13:09:07;24.10;49.90
65038;DHT22;51605;47.040;15.294;2023-07-28T13:11:36;24.10;49.80
65038;DHT22;51605;47.040;15.294;2023-07-28T13:14:02;24.10;49.70
65038;DHT22;51605;47.040;15.294;2023-07-28T13:16:28;24.10;49.80
65038;DHT22;51605;47.040;15.294;2023-07-28T13:18:53;24.10;49.80
65038;DHT22;51605;47.040;15.294;2023-07-28T13:21:19;24.10;49.70
65038;DHT22;51605;47.040;15.294;2023-07-28T13:23:44;24.10;49.70
65038;DHT22;51605;47.040;15.294;2023-07-28T13:26:10;24.10;49.70
65038;DHT22;51605;47.040;15.294;2023-07-28T13:28:36;24.10;49.70
65038;DHT22;51605;47.040;15.294;2023-07-28T13:31:02;24.10;49.70
65038;DHT22;51605;47.040;15.294;2023-07-28T13:33:30;24.10;49.70
65038;DHT22;51605;47.040;15.294;2023-07-28T13:35:56;24.10;49.70
65038;DHT22;51605;47.040;15.294;2023-07-28T13:38:21;24.10;49.80
65038;DHT22;51605;47.040;15.294;2023-07-28T13:40:47;24.10;49.70
65038;DHT22;51605;47.040;15.294;2023-07-28T13:43:12;24.10;49.70
65038;DHT22;51605;47.040;15.294;2023-07-28T13:45:38;24.10;49.70
65038;DHT22;51605;47.040;15.294;2023-07-28T13:48:04;24.10;49.90
65038;DHT22;51605;47.040;15.294;2023-07-28T13:50:29;24.20;49.80
65038;DHT22;51605;47.040;15.294;2023-07-28T13:52:55;24.10;49.70
65038;DHT22;51605;47.040;15.294;2023-07-28T13:55:21;24.10;49.70
65038;DHT22;51605;47.040;15.294;2023-07-28T13:57:46;24.10;49.70
65038;DHT22;51605;47.040;15.294;2023-07-28T14:00:12;24.10;49.70
65038;DHT22;51605;47.040;15.294;2023-07-28T14:02:39;24.10;49.80
65038;DHT22;51605;47.040;15.294;2023-07-28T14:05:05;24.10;49.80
65038;DHT22;51605;47.040;15.294;2023-07-28T14:07:31;24.10;49.80
65038;DHT22;51605;47.040;15.294;2023-07-28T14:09:57;24.10;49.80
65038;DHT22;51605;47.040;15.294;2023-07-28T14:12:23;24.10;49.80
65038;DHT22;51605;47.040;15.294;2023-07-28T14:14:48;24.10;49.80
65038;DHT22;51605;47.040;15.294;2023-07-28T14:17:15;24.10;49.80
65038;DHT22;51605;47.040;15.294;2023-07-28T14:19:41;24.10;49.90
65038;DHT22;51605;47.040;15.294;2023-07-28T14:22:07;24.10;49.90
65038;DHT22;51605;47.040;15.294;2023-07-28T14:24:33;24.10;49.80
65038;DHT22;51605;47.040;15.294;2023-07-28T14:26:59;24.10;49.80
65038;DHT22;51605;47.040;15.294;2023-07-28T14:29:25;24.10;49.90
65038;DHT22;51605;47.040;15.294;2023-07-28T14:31:51;24.10;49.90
65038;DHT22;51605;47.040;15.294;2023-07-28T14:34:16;24.00;49.80
65038;DHT22;51605;47.040;15.294;2023-07-28T14:36:42;24.10;49.90
65038;DHT22;51605;47.040;15.294;2023-07-28T14:39:07;24.10;49.90
65038;DHT22;51605;47.040;15.294;2023-07-28T14:41:34;24.10;49.80
65038;DHT22;51605;47.040;15.294;2023-07-28T14:44:00;24.10;49.90
65038;DHT22;51605;47.040;15.294;2023-07-28T14:46:26;24.10;49.90
65038;DHT22;51605;47.040;15.294;2023-07-28T14:48:52;24.10;49.90
65038;DHT22;51605;47.040;15.294;2023-07-28T14:51:18;24.10;49.80
65038;DHT22;51605;47.040;15.294;2023-07-28T14:53:43;24.10;49.80
65038;DHT22;51605;47.040;15.294;2023-07-28T14:56:12;24.10;49.80
65038;DHT22;51605;47.040;15.294;2023-07-28T14:58:37;24.10;49.90
65038;DHT22;51605;47.040;15.294;2023-07-28T15:01:03;24.10;49.90
65038;DHT22;51605;47.040;15.294;2023-07-28T15:03:30;24.10;49.80
65038;DHT22;51605;47.040;15.294;2023-07-28T15:05:56;24.10;49.80
65038;DHT22;51605;47.040;15.294;2023-07-28T15:08:22;24.10;49.80
65038;DHT22;51605;47.040;15.294;2023-07-28T15:10:48;24.10;49.80
65038;DHT22;51605;47.040;15.294;2023-07-28T15:13:14;24.10;49.80
65038;DHT22;51605;47.040;15.294;2023-07-28T15:15:39;24.10;49.80
65038;DHT22;51605;47.040;15.294;2023-07-28T15:18:05;24.10;49.80